sensor_id;sensor_type;location;lat;lon;timestamp;pressure;altitude;pressure_sealevel;temperature;humidity
63447;BME280;49577;49.872;6.190;2022-07-06T00:02:19;100332.52;;;13.63;66.42
63447;BME280;49577;49.872;6.190;2022-07-06T00:04:45;100333.11;;;13.62;66.41
63447;BME280;49577;49.872;6.190;2022-07-06T00:07:10;100335.56;;;13.57;66.64
63447;BME280;49577;49.872;6.190;2022-07-06T00:09:36;100334.40;;;13.53;66.78
63447;BME280;49577;49.872;6.190;2022-07-06T00:12:01;100333.13;;;13.51;66.87
63447;BME280;49577;49.872;6.190;2022-07-06T00:14:27;100339.52;;;13.47;67.10
63447;BME280;49577;49.872;6.190;2022-07-06T00:16:52;100342.08;;;13.43;67.12
63447;BME280;49577;49.872;6.190;2022-07-06T00:19:17;100336.90;;;13.41;66.95
63447;BME280;49577;49.872;6.190;2022-07-06T00:21:43;100341.38;;;13.37;66.87
63447;BME280;49577;49.872;6.190;2022-07-06T00:24:08;100344.16;;;13.31;67.02
63447;BME280;49577;49.872;6.190;2022-07-06T00:26:34;100340.52;;;13.28;67.15
63447;BME280;49577;49.872;6.190;2022-07-06T00:28:59;100339.00;;;13.24;67.21
63447;BME280;49577;49.872;6.190;2022-07-06T00:31:25;100335.61;;;13.22;67.53
63447;BME280;49577;49.872;6.190;2022-07-06T00:33:50;100335.21;;;13.20;67.46
63447;BME280;49577;49.872;6.190;2022-07-06T00:36:16;100337.70;;;13.14;67.70
63447;BME280;49577;49.872;6.190;2022-07-06T00:38:41;100335.48;;;13.10;67.77
63447;BME280;49577;49.872;6.190;2022-07-06T00:41:07;100336.82;;;13.08;67.93
63447;BME280;49577;49.872;6.190;2022-07-06T00:43:52;100340.25;;;13.01;67.94
63447;BME280;49577;49.872;6.190;2022-07-06T00:46:18;100342.86;;;12.96;68.11
63447;BME280;49577;49.872;6.190;2022-07-06T00:48:44;100349.31;;;12.96;68.18
63447;BME280;49577;49.872;6.190;2022-07-06T00:51:10;100348.70;;;12.95;68.21
63447;BME280;49577;49.872;6.190;2022-07-06T00:53:36;100344.41;;;12.89;68.42
63447;BME280;49577;49.872;6.190;2022-07-06T00:56:02;100342.09;;;12.88;68.44
63447;BME280;49577;49.872;6.190;2022-07-06T00:58:27;100332.04;;;12.86;68.27
63447;BME280;49577;49.872;6.190;2022-07-06T01:00:53;100331.58;;;12.82;68.19
63447;BME280;49577;49.872;6.190;2022-07-06T01:03:18;100333.30;;;12.74;68.01
63447;BME280;49577;49.872;6.190;2022-07-06T01:05:44;100329.70;;;12.67;68.37
63447;BME280;49577;49.872;6.190;2022-07-06T01:08:09;100332.23;;;12.62;68.54
63447;BME280;49577;49.872;6.190;2022-07-06T01:10:35;100328.69;;;12.57;68.30
63447;BME280;49577;49.872;6.190;2022-07-06T01:13:00;100329.20;;;12.49;68.18
63447;BME280;49577;49.872;6.190;2022-07-06T01:15:26;100333.19;;;12.40;68.46
63447;BME280;49577;49.872;6.190;2022-07-06T01:17:52;100333.70;;;12.31;68.72
63447;BME280;49577;49.872;6.190;2022-07-06T01:20:22;100331.73;;;12.20;68.61
63447;BME280;49577;49.872;6.190;2022-07-06T01:22:50;100329.51;;;12.10;68.85
63447;BME280;49577;49.872;6.190;2022-07-06T01:25:16;100332.81;;;12.01;69.17
63447;BME280;49577;49.872;6.190;2022-07-06T01:27:43;100332.64;;;11.95;69.36
63447;BME280;49577;49.872;6.190;2022-07-06T01:30:11;100333.33;;;11.89;69.49
63447;BME280;49577;49.872;6.190;2022-07-06T01:32:37;100329.39;;;11.84;69.61
63447;BME280;49577;49.872;6.190;2022-07-06T01:35:05;100326.23;;;11.81;69.45
63447;BME280;49577;49.872;6.190;2022-07-06T01:37:31;100325.73;;;11.77;69.60
63447;BME280;49577;49.872;6.190;2022-07-06T01:40:00;100323.48;;;11.74;69.60
63447;BME280;49577;49.872;6.190;2022-07-06T01:42:26;100324.69;;;11.68;69.60
63447;BME280;49577;49.872;6.190;2022-07-06T01:44:51;100324.80;;;11.63;69.76
63447;BME280;49577;49.872;6.190;2022-07-06T01:47:16;100326.56;;;11.56;69.79
63447;BME280;49577;49.872;6.190;2022-07-06T01:49:42;100328.08;;;11.51;70.01
63447;BME280;49577;49.872;6.190;2022-07-06T01:52:07;100328.50;;;11.47;69.95
63447;BME280;49577;49.872;6.190;2022-07-06T01:54:33;100329.16;;;11.40;70.11
63447;BME280;49577;49.872;6.190;2022-07-06T01:56:58;100331.67;;;11.36;70.31
63447;BME280;49577;49.872;6.190;2022-07-06T01:59:23;100334.54;;;11.32;70.37
63447;BME280;49577;49.872;6.190;2022-07-06T02:01:49;100334.19;;;11.26;70.49
63447;BME280;49577;49.872;6.190;2022-07-06T02:04:14;100335.09;;;11.22;70.51
63447;BME280;49577;49.872;6.190;2022-07-06T02:06:39;100339.90;;;11.17;70.53
63447;BME280;49577;49.872;6.190;2022-07-06T02:09:05;100342.50;;;11.11;70.65
63447;BME280;49577;49.872;6.190;2022-07-06T02:11:30;100341.86;;;11.06;70.83
63447;BME280;49577;49.872;6.190;2022-07-06T02:13:56;100345.70;;;11.03;70.93
63447;BME280;49577;49.872;6.190;2022-07-06T02:16:21;100340.46;;;10.97;70.83
63447;BME280;49577;49.872;6.190;2022-07-06T02:18:46;100334.80;;;10.91;71.04
63447;BME280;49577;49.872;6.190;2022-07-06T02:21:12;100339.84;;;10.85;71.07
63447;BME280;49577;49.872;6.190;2022-07-06T02:23:37;100339.09;;;10.82;71.34
63447;BME280;49577;49.872;6.190;2022-07-06T02:26:02;100341.14;;;10.83;71.24
63447;BME280;49577;49.872;6.190;2022-07-06T02:28:29;100336.41;;;10.80;71.14
63447;BME280;49577;49.872;6.190;2022-07-06T02:30:54;100334.96;;;10.78;71.25
63447;BME280;49577;49.872;6.190;2022-07-06T02:33:19;100334.13;;;10.77;71.45
63447;BME280;49577;49.872;6.190;2022-07-06T02:35:45;100333.08;;;10.74;71.31
63447;BME280;49577;49.872;6.190;2022-07-06T02:38:10;100330.52;;;10.69;71.31
63447;BME280;49577;49.872;6.190;2022-07-06T02:40:36;100338.16;;;10.67;71.61
63447;BME280;49577;49.872;6.190;2022-07-06T02:43:02;100336.96;;;10.66;71.73
63447;BME280;49577;49.872;6.190;2022-07-06T02:45:27;100341.23;;;10.65;71.65
63447;BME280;49577;49.872;6.190;2022-07-06T02:47:52;100342.65;;;10.61;71.64
63447;BME280;49577;49.872;6.190;2022-07-06T02:50:20;100348.69;;;10.56;71.70
63447;BME280;49577;49.872;6.190;2022-07-06T02:52:45;100347.91;;;10.53;71.66
63447;BME280;49577;49.872;6.190;2022-07-06T02:55:11;100352.10;;;10.54;71.63
63447;BME280;49577;49.872;6.190;2022-07-06T02:57:36;100349.44;;;10.51;71.70
63447;BME280;49577;49.872;6.190;2022-07-06T03:00:03;100352.24;;;10.48;71.51
63447;BME280;49577;49.872;6.190;2022-07-06T03:02:28;100353.25;;;10.38;71.55
63447;BME280;49577;49.872;6.190;2022-07-06T03:04:54;100351.42;;;10.29;71.67
63447;BME280;49577;49.872;6.190;2022-07-06T03:07:19;100350.87;;;10.22;71.86
63447;BME280;49577;49.872;6.190;2022-07-06T03:09:45;100350.73;;;10.21;72.23
63447;BME280;49577;49.872;6.190;2022-07-06T03:12:10;100352.67;;;10.21;72.24
63447;BME280;49577;49.872;6.190;2022-07-06T03:14:36;100356.91;;;10.20;72.33
63447;BME280;49577;49.872;6.190;2022-07-06T03:17:01;100360.89;;;10.20;72.30
63447;BME280;49577;49.872;6.190;2022-07-06T03:19:26;100365.10;;;10.17;72.03
63447;BME280;49577;49.872;6.190;2022-07-06T03:21:52;100361.94;;;10.10;72.09
63447;BME280;49577;49.872;6.190;2022-07-06T03:24:17;100364.90;;;10.03;72.20
63447;BME280;49577;49.872;6.190;2022-07-06T03:26:42;100366.39;;;9.94;72.34
63447;BME280;49577;49.872;6.190;2022-07-06T03:29:08;100365.54;;;9.89;72.54
63447;BME280;49577;49.872;6.190;2022-07-06T03:31:33;100370.06;;;9.90;72.49
63447;BME280;49577;49.872;6.190;2022-07-06T03:34:00;100375.26;;;9.91;72.58
63447;BME280;49577;49.872;6.190;2022-07-06T03:36:25;100372.48;;;9.87;72.43
63447;BME280;49577;49.872;6.190;2022-07-06T03:38:50;100376.69;;;9.83;72.52
63447;BME280;49577;49.872;6.190;2022-07-06T03:41:16;100373.52;;;9.83;72.71
63447;BME280;49577;49.872;6.190;2022-07-06T03:43:41;100374.88;;;9.84;72.67
63447;BME280;49577;49.872;6.190;2022-07-06T03:46:07;100379.83;;;9.82;72.46
63447;BME280;49577;49.872;6.190;2022-07-06T03:48:32;100386.29;;;9.79;72.60
63447;BME280;49577;49.872;6.190;2022-07-06T03:50:57;100392.26;;;9.78;72.70
63447;BME280;49577;49.872;6.190;2022-07-06T03:53:24;100393.51;;;9.77;72.67
63447;BME280;49577;49.872;6.190;2022-07-06T03:55:49;100397.72;;;9.77;72.67
63447;BME280;49577;49.872;6.190;2022-07-06T03:58:54;100401.73;;;9.73;72.86
63447;BME280;49577;49.872;6.190;2022-07-06T04:01:19;100405.94;;;9.76;72.93
63447;BME280;49577;49.872;6.190;2022-07-06T04:03:44;100406.84;;;9.79;72.87
63447;BME280;49577;49.872;6.190;2022-07-06T04:06:10;100408.80;;;9.83;72.75
63447;BME280;49577;49.872;6.190;2022-07-06T04:08:35;100405.63;;;9.83;72.67
63447;BME280;49577;49.872;6.190;2022-07-06T04:11:01;100404.98;;;9.82;72.69
63447;BME280;49577;49.872;6.190;2022-07-06T04:13:26;100407.10;;;9.78;72.48
63447;BME280;49577;49.872;6.190;2022-07-06T04:15:52;100406.91;;;9.75;72.49
63447;BME280;49577;49.872;6.190;2022-07-06T04:18:17;100409.67;;;9.71;72.53
63447;BME280;49577;49.872;6.190;2022-07-06T04:20:42;100411.08;;;9.71;72.43
63447;BME280;49577;49.872;6.190;2022-07-06T04:23:08;100409.59;;;9.70;72.64
63447;BME280;49577;49.872;6.190;2022-07-06T04:25:33;100410.83;;;9.69;72.66
63447;BME280;49577;49.872;6.190;2022-07-06T04:27:59;100408.88;;;9.70;72.68
63447;BME280;49577;49.872;6.190;2022-07-06T04:30:24;100412.21;;;9.69;72.62
63447;BME280;49577;49.872;6.190;2022-07-06T04:32:50;100412.52;;;9.81;72.53
63447;BME280;49577;49.872;6.190;2022-07-06T04:35:15;100414.04;;;10.41;71.87
63447;BME280;49577;49.872;6.190;2022-07-06T04:37:40;100416.20;;;11.02;70.63
63447;BME280;49577;49.872;6.190;2022-07-06T04:40:06;100420.67;;;11.44;69.38
63447;BME280;49577;49.872;6.190;2022-07-06T04:42:32;100418.04;;;11.53;69.08
63447;BME280;49577;49.872;6.190;2022-07-06T04:44:57;100418.17;;;11.48;68.84
63447;BME280;49577;49.872;6.190;2022-07-06T04:47:22;100418.95;;;11.44;68.83
63447;BME280;49577;49.872;6.190;2022-07-06T04:49:48;100424.79;;;11.49;68.65
63447;BME280;49577;49.872;6.190;2022-07-06T04:52:13;100426.33;;;11.49;68.61
63447;BME280;49577;49.872;6.190;2022-07-06T04:54:38;100419.94;;;11.48;68.40
63447;BME280;49577;49.872;6.190;2022-07-06T04:57:04;100415.65;;;11.43;68.55
63447;BME280;49577;49.872;6.190;2022-07-06T04:59:29;100416.25;;;11.48;68.46
63447;BME280;49577;49.872;6.190;2022-07-06T05:01:55;100419.98;;;11.89;68.04
63447;BME280;49577;49.872;6.190;2022-07-06T05:04:20;100420.70;;;12.63;66.73
63447;BME280;49577;49.872;6.190;2022-07-06T05:06:46;100419.65;;;13.36;65.34
63447;BME280;49577;49.872;6.190;2022-07-06T05:09:12;100423.51;;;14.15;63.96
63447;BME280;49577;49.872;6.190;2022-07-06T05:11:38;100425.15;;;14.86;62.18
63447;BME280;49577;49.872;6.190;2022-07-06T05:14:04;100428.12;;;15.53;60.77
63447;BME280;49577;49.872;6.190;2022-07-06T05:16:30;100425.91;;;16.18;59.13
63447;BME280;49577;49.872;6.190;2022-07-06T05:18:55;100424.06;;;16.79;57.65
63447;BME280;49577;49.872;6.190;2022-07-06T05:21:20;100420.77;;;17.42;56.04
63447;BME280;49577;49.872;6.190;2022-07-06T05:23:46;100422.79;;;18.08;55.20
63447;BME280;49577;49.872;6.190;2022-07-06T05:26:11;100418.83;;;18.65;53.57
63447;BME280;49577;49.872;6.190;2022-07-06T05:28:36;100422.55;;;19.09;51.67
63447;BME280;49577;49.872;6.190;2022-07-06T05:31:02;100421.96;;;19.42;50.96
63447;BME280;49577;49.872;6.190;2022-07-06T05:33:28;100420.10;;;19.90;49.61
63447;BME280;49577;49.872;6.190;2022-07-06T05:35:53;100419.98;;;20.29;48.44
63447;BME280;49577;49.872;6.190;2022-07-06T05:38:18;100420.50;;;20.74;47.48
63447;BME280;49577;49.872;6.190;2022-07-06T05:40:44;100420.69;;;21.22;46.51
63447;BME280;49577;49.872;6.190;2022-07-06T05:43:09;100423.68;;;21.72;45.13
63447;BME280;49577;49.872;6.190;2022-07-06T05:45:35;100419.79;;;22.02;44.37
63447;BME280;49577;49.872;6.190;2022-07-06T05:48:00;100415.37;;;22.23;43.50
63447;BME280;49577;49.872;6.190;2022-07-06T05:50:44;100411.13;;;22.44;43.05
63447;BME280;49577;49.872;6.190;2022-07-06T05:53:09;100409.85;;;22.75;42.11
63447;BME280;49577;49.872;6.190;2022-07-06T05:55:35;100409.23;;;23.14;41.36
63447;BME280;49577;49.872;6.190;2022-07-06T05:58:00;100406.00;;;23.55;40.89
63447;BME280;49577;49.872;6.190;2022-07-06T06:00:26;100408.90;;;23.92;39.96
63447;BME280;49577;49.872;6.190;2022-07-06T06:02:52;100417.13;;;24.34;39.15
63447;BME280;49577;49.872;6.190;2022-07-06T06:05:18;100413.31;;;24.82;38.05
63447;BME280;49577;49.872;6.190;2022-07-06T06:07:44;100420.75;;;25.06;36.87
63447;BME280;49577;49.872;6.190;2022-07-06T06:10:12;100414.64;;;25.20;36.32
63447;BME280;49577;49.872;6.190;2022-07-06T06:12:38;100415.58;;;25.47;35.87
63447;BME280;49577;49.872;6.190;2022-07-06T06:15:05;100419.30;;;25.77;35.24
63447;BME280;49577;49.872;6.190;2022-07-06T06:17:31;100419.66;;;26.01;34.51
63447;BME280;49577;49.872;6.190;2022-07-06T06:19:57;100412.39;;;26.16;34.34
63447;BME280;49577;49.872;6.190;2022-07-06T06:22:23;100415.67;;;26.55;33.88
63447;BME280;49577;49.872;6.190;2022-07-06T06:24:49;100416.36;;;27.04;32.80
63447;BME280;49577;49.872;6.190;2022-07-06T06:27:14;100417.21;;;27.37;31.98
63447;BME280;49577;49.872;6.190;2022-07-06T06:29:40;100420.75;;;27.48;31.84
63447;BME280;49577;49.872;6.190;2022-07-06T06:32:06;100419.11;;;27.64;31.01
63447;BME280;49577;49.872;6.190;2022-07-06T06:34:32;100417.66;;;27.53;30.94
63447;BME280;49577;49.872;6.190;2022-07-06T06:36:57;100417.70;;;27.36;30.81
63447;BME280;49577;49.872;6.190;2022-07-06T06:39:23;100416.55;;;27.31;30.93
63447;BME280;49577;49.872;6.190;2022-07-06T06:41:48;100419.27;;;27.42;30.68
63447;BME280;49577;49.872;6.190;2022-07-06T06:44:14;100420.83;;;27.50;29.84
63447;BME280;49577;49.872;6.190;2022-07-06T06:46:39;100419.23;;;27.62;29.95
63447;BME280;49577;49.872;6.190;2022-07-06T06:49:05;100422.83;;;27.78;29.42
63447;BME280;49577;49.872;6.190;2022-07-06T06:51:30;100422.30;;;27.65;29.04
63447;BME280;49577;49.872;6.190;2022-07-06T06:53:56;100423.47;;;27.74;29.42
63447;BME280;49577;49.872;6.190;2022-07-06T06:56:21;100423.35;;;28.09;29.28
63447;BME280;49577;49.872;6.190;2022-07-06T06:58:46;100423.54;;;28.40;28.10
63447;BME280;49577;49.872;6.190;2022-07-06T07:01:12;100427.84;;;28.45;27.92
63447;BME280;49577;49.872;6.190;2022-07-06T07:03:37;100426.65;;;28.66;27.84
63447;BME280;49577;49.872;6.190;2022-07-06T07:06:03;100423.66;;;28.90;27.15
63447;BME280;49577;49.872;6.190;2022-07-06T07:08:28;100428.80;;;28.85;26.54
63447;BME280;49577;49.872;6.190;2022-07-06T07:10:53;100431.48;;;28.54;26.50
63447;BME280;49577;49.872;6.190;2022-07-06T07:13:19;100434.33;;;28.14;26.83
63447;BME280;49577;49.872;6.190;2022-07-06T07:15:44;100439.75;;;28.14;26.71
63447;BME280;49577;49.872;6.190;2022-07-06T07:18:09;100432.52;;;27.98;26.46
63447;BME280;49577;49.872;6.190;2022-07-06T07:20:35;100431.05;;;27.93;27.40
63447;BME280;49577;49.872;6.190;2022-07-06T07:23:01;100428.73;;;28.04;27.24
63447;BME280;49577;49.872;6.190;2022-07-06T07:25:26;100432.84;;;28.19;26.63
63447;BME280;49577;49.872;6.190;2022-07-06T07:27:52;100427.59;;;28.19;26.58
63447;BME280;49577;49.872;6.190;2022-07-06T07:30:17;100427.55;;;28.29;26.05
63447;BME280;49577;49.872;6.190;2022-07-06T07:32:42;100425.67;;;28.23;26.09
63447;BME280;49577;49.872;6.190;2022-07-06T07:35:08;100424.79;;;28.22;25.70
63447;BME280;49577;49.872;6.190;2022-07-06T07:37:34;100423.86;;;28.21;25.17
63447;BME280;49577;49.872;6.190;2022-07-06T07:39:59;100420.73;;;28.01;25.94
63447;BME280;49577;49.872;6.190;2022-07-06T07:42:25;100423.16;;;28.48;26.21
63447;BME280;49577;49.872;6.190;2022-07-06T07:44:51;100418.89;;;29.11;25.31
63447;BME280;49577;49.872;6.190;2022-07-06T07:47:16;100413.93;;;29.73;24.84
63447;BME280;49577;49.872;6.190;2022-07-06T07:49:42;100409.65;;;30.10;24.05
63447;BME280;49577;49.872;6.190;2022-07-06T07:52:08;100409.50;;;30.01;22.91
63447;BME280;49577;49.872;6.190;2022-07-06T07:54:33;100413.45;;;29.50;23.51
63447;BME280;49577;49.872;6.190;2022-07-06T07:56:58;100419.05;;;29.36;23.83
63447;BME280;49577;49.872;6.190;2022-07-06T07:59:24;100420.66;;;29.27;23.69
63447;BME280;49577;49.872;6.190;2022-07-06T08:01:49;100421.75;;;29.22;23.20
63447;BME280;49577;49.872;6.190;2022-07-06T08:04:15;100416.08;;;28.75;23.44
63447;BME280;49577;49.872;6.190;2022-07-06T08:06:40;100419.23;;;28.43;24.01
63447;BME280;49577;49.872;6.190;2022-07-06T08:09:05;100410.69;;;28.25;24.38
63447;BME280;49577;49.872;6.190;2022-07-06T08:11:33;100416.86;;;28.61;24.11
63447;BME280;49577;49.872;6.190;2022-07-06T08:13:59;100415.95;;;29.26;23.84
63447;BME280;49577;49.872;6.190;2022-07-06T08:16:24;100412.94;;;29.49;23.17
63447;BME280;49577;49.872;6.190;2022-07-06T08:18:49;100417.27;;;29.24;23.21
63447;BME280;49577;49.872;6.190;2022-07-06T08:21:15;100413.00;;;29.44;22.67
63447;BME280;49577;49.872;6.190;2022-07-06T08:23:40;100416.64;;;29.82;21.99
63447;BME280;49577;49.872;6.190;2022-07-06T08:26:05;100413.23;;;29.62;22.56
63447;BME280;49577;49.872;6.190;2022-07-06T08:28:31;100414.77;;;29.60;22.26
63447;BME280;49577;49.872;6.190;2022-07-06T08:30:56;100412.83;;;29.57;21.92
63447;BME280;49577;49.872;6.190;2022-07-06T08:33:22;100409.35;;;29.69;22.35
63447;BME280;49577;49.872;6.190;2022-07-06T08:35:48;100408.52;;;29.59;22.66
63447;BME280;49577;49.872;6.190;2022-07-06T08:38:13;100411.58;;;29.34;22.75
63447;BME280;49577;49.872;6.190;2022-07-06T08:40:40;100412.84;;;28.73;23.31
63447;BME280;49577;49.872;6.190;2022-07-06T08:43:06;100412.79;;;28.44;24.30
63447;BME280;49577;49.872;6.190;2022-07-06T08:45:33;100403.91;;;29.19;23.74
63447;BME280;49577;49.872;6.190;2022-07-06T08:48:04;100404.94;;;29.05;23.60
63447;BME280;49577;49.872;6.190;2022-07-06T08:50:30;100400.66;;;28.59;23.53
63447;BME280;49577;49.872;6.190;2022-07-06T08:52:55;100402.73;;;28.14;24.17
63447;BME280;49577;49.872;6.190;2022-07-06T08:55:21;100408.13;;;27.63;24.78
63447;BME280;49577;49.872;6.190;2022-07-06T08:57:46;100407.45;;;27.43;24.95
63447;BME280;49577;49.872;6.190;2022-07-06T09:00:13;100405.48;;;27.58;24.57
63447;BME280;49577;49.872;6.190;2022-07-06T09:02:40;100407.08;;;27.26;25.07
63447;BME280;49577;49.872;6.190;2022-07-06T09:05:06;100413.61;;;28.02;24.16
63447;BME280;49577;49.872;6.190;2022-07-06T09:07:34;100411.13;;;28.90;23.61
63447;BME280;49577;49.872;6.190;2022-07-06T09:09:59;100408.35;;;29.68;22.68
63447;BME280;49577;49.872;6.190;2022-07-06T09:12:29;100401.90;;;29.63;22.24
63447;BME280;49577;49.872;6.190;2022-07-06T09:14:57;100399.71;;;29.44;22.32
63447;BME280;49577;49.872;6.190;2022-07-06T09:17:29;100397.14;;;29.79;22.06
63447;BME280;49577;49.872;6.190;2022-07-06T09:19:56;100395.73;;;30.42;21.12
63447;BME280;49577;49.872;6.190;2022-07-06T09:22:29;100401.84;;;30.82;20.19
63447;BME280;49577;49.872;6.190;2022-07-06T09:25:11;100401.45;;;30.40;19.87
63447;BME280;49577;49.872;6.190;2022-07-06T09:27:42;100402.45;;;29.22;21.20
63447;BME280;49577;49.872;6.190;2022-07-06T09:30:09;100403.09;;;29.47;21.39
63447;BME280;49577;49.872;6.190;2022-07-06T09:32:39;100403.31;;;29.36;21.54
63447;BME280;49577;49.872;6.190;2022-07-06T09:35:05;100401.73;;;28.72;22.24
63447;BME280;49577;49.872;6.190;2022-07-06T09:37:30;100405.10;;;28.37;22.80
63447;BME280;49577;49.872;6.190;2022-07-06T09:39:56;100403.88;;;27.98;23.03
63447;BME280;49577;49.872;6.190;2022-07-06T09:42:25;100403.41;;;27.67;23.41
63447;BME280;49577;49.872;6.190;2022-07-06T09:44:51;100404.59;;;27.69;23.36
63447;BME280;49577;49.872;6.190;2022-07-06T09:47:17;100404.14;;;27.98;23.14
63447;BME280;49577;49.872;6.190;2022-07-06T09:49:43;100402.01;;;28.71;22.79
63447;BME280;49577;49.872;6.190;2022-07-06T09:52:10;100402.44;;;29.35;22.37
63447;BME280;49577;49.872;6.190;2022-07-06T09:54:37;100400.84;;;28.89;22.56
63447;BME280;49577;49.872;6.190;2022-07-06T09:57:04;100401.02;;;28.61;23.04
63447;BME280;49577;49.872;6.190;2022-07-06T09:59:32;100400.67;;;29.34;22.68
63447;BME280;49577;49.872;6.190;2022-07-06T10:02:00;100397.00;;;30.00;21.85
63447;BME280;49577;49.872;6.190;2022-07-06T10:04:26;100397.31;;;29.67;22.01
63447;BME280;49577;49.872;6.190;2022-07-06T10:06:53;100398.58;;;29.29;22.50
63447;BME280;49577;49.872;6.190;2022-07-06T10:09:20;100400.03;;;28.67;22.76
63447;BME280;49577;49.872;6.190;2022-07-06T10:11:59;100404.36;;;28.47;22.85
63447;BME280;49577;49.872;6.190;2022-07-06T10:14:33;100401.90;;;29.21;22.30
63447;BME280;49577;49.872;6.190;2022-07-06T10:17:03;100402.04;;;29.95;21.85
63447;BME280;49577;49.872;6.190;2022-07-06T10:19:32;100402.38;;;30.69;21.12
63447;BME280;49577;49.872;6.190;2022-07-06T10:22:00;100396.05;;;30.86;20.31
63447;BME280;49577;49.872;6.190;2022-07-06T10:24:27;100392.88;;;30.95;20.56
63447;BME280;49577;49.872;6.190;2022-07-06T10:26:52;100393.63;;;31.20;20.10
63447;BME280;49577;49.872;6.190;2022-07-06T10:29:18;100394.99;;;31.43;20.07
63447;BME280;49577;49.872;6.190;2022-07-06T10:31:45;100390.70;;;31.69;19.93
63447;BME280;49577;49.872;6.190;2022-07-06T10:34:13;100393.18;;;31.76;19.26
63447;BME280;49577;49.872;6.190;2022-07-06T10:36:42;100391.05;;;31.31;19.94
63447;BME280;49577;49.872;6.190;2022-07-06T10:39:09;100385.69;;;31.20;20.02
63447;BME280;49577;49.872;6.190;2022-07-06T10:41:54;100384.18;;;30.68;20.78
63447;BME280;49577;49.872;6.190;2022-07-06T10:44:22;100381.17;;;30.44;20.88
63447;BME280;49577;49.872;6.190;2022-07-06T10:46:58;100379.52;;;30.49;21.34
63447;BME280;49577;49.872;6.190;2022-07-06T10:49:25;100380.39;;;30.48;21.13
63447;BME280;49577;49.872;6.190;2022-07-06T10:51:52;100383.35;;;30.12;21.31
63447;BME280;49577;49.872;6.190;2022-07-06T10:54:20;100385.44;;;29.50;21.08
63447;BME280;49577;49.872;6.190;2022-07-06T10:56:47;100385.30;;;28.63;22.07
63447;BME280;49577;49.872;6.190;2022-07-06T10:59:23;100386.65;;;28.55;22.13
63447;BME280;49577;49.872;6.190;2022-07-06T11:02:14;100380.42;;;28.63;22.21
63447;BME280;49577;49.872;6.190;2022-07-06T11:04:41;100380.51;;;28.89;22.48
63447;BME280;49577;49.872;6.190;2022-07-06T11:07:10;100381.88;;;28.98;22.32
63447;BME280;49577;49.872;6.190;2022-07-06T11:09:36;100384.38;;;29.13;22.00
63447;BME280;49577;49.872;6.190;2022-07-06T11:12:15;100378.05;;;29.25;21.90
63447;BME280;49577;49.872;6.190;2022-07-06T11:14:43;100381.77;;;29.13;22.55
63447;BME280;49577;49.872;6.190;2022-07-06T11:17:10;100381.41;;;29.30;22.61
63447;BME280;49577;49.872;6.190;2022-07-06T11:19:36;100380.40;;;29.44;22.29
63447;BME280;49577;49.872;6.190;2022-07-06T11:22:09;100375.83;;;29.51;22.01
63447;BME280;49577;49.872;6.190;2022-07-06T11:24:40;100370.71;;;29.75;21.69
63447;BME280;49577;49.872;6.190;2022-07-06T11:27:06;100367.30;;;29.93;21.91
63447;BME280;49577;49.872;6.190;2022-07-06T11:29:32;100368.36;;;29.96;21.99
63447;BME280;49577;49.872;6.190;2022-07-06T11:32:01;100367.39;;;29.90;22.10
63447;BME280;49577;49.872;6.190;2022-07-06T11:34:33;100370.84;;;29.76;22.23
63447;BME280;49577;49.872;6.190;2022-07-06T11:37:01;100369.03;;;29.86;21.93
63447;BME280;49577;49.872;6.190;2022-07-06T11:39:32;100364.76;;;29.74;21.91
63447;BME280;49577;49.872;6.190;2022-07-06T11:41:58;100362.72;;;29.54;22.28
63447;BME280;49577;49.872;6.190;2022-07-06T11:44:24;100360.64;;;29.38;22.35
63447;BME280;49577;49.872;6.190;2022-07-06T11:46:50;100359.41;;;29.27;22.39
63447;BME280;49577;49.872;6.190;2022-07-06T11:49:16;100359.73;;;29.23;22.30
63447;BME280;49577;49.872;6.190;2022-07-06T11:51:42;100355.02;;;29.17;22.33
63447;BME280;49577;49.872;6.190;2022-07-06T11:54:14;100362.20;;;29.06;22.73
63447;BME280;49577;49.872;6.190;2022-07-06T11:56:57;100365.41;;;28.71;23.03
63447;BME280;49577;49.872;6.190;2022-07-06T12:02:02;100365.15;;;28.09;23.42
63447;BME280;49577;49.872;6.190;2022-07-06T12:04:28;100367.27;;;28.05;23.72
63447;BME280;49577;49.872;6.190;2022-07-06T12:06:54;100365.11;;;27.74;24.28
63447;BME280;49577;49.872;6.190;2022-07-06T12:09:21;100359.48;;;27.44;24.59
63447;BME280;49577;49.872;6.190;2022-07-06T12:11:47;100360.05;;;27.22;24.85
63447;BME280;49577;49.872;6.190;2022-07-06T12:14:19;100357.20;;;27.04;25.30
63447;BME280;49577;49.872;6.190;2022-07-06T12:16:46;100359.31;;;27.09;25.70
63447;BME280;49577;49.872;6.190;2022-07-06T12:19:13;100359.88;;;27.10;25.43
63447;BME280;49577;49.872;6.190;2022-07-06T12:21:45;100355.08;;;26.96;25.30
63447;BME280;49577;49.872;6.190;2022-07-06T12:24:17;100357.41;;;26.71;25.33
63447;BME280;49577;49.872;6.190;2022-07-06T12:26:43;100353.30;;;26.60;25.99
63447;BME280;49577;49.872;6.190;2022-07-06T12:29:12;100350.10;;;26.54;26.35
63447;BME280;49577;49.872;6.190;2022-07-06T12:32:02;100351.64;;;26.39;26.65
63447;BME280;49577;49.872;6.190;2022-07-06T12:34:29;100347.09;;;26.35;26.57
63447;BME280;49577;49.872;6.190;2022-07-06T12:37:05;100348.42;;;26.39;26.92
63447;BME280;49577;49.872;6.190;2022-07-06T12:39:32;100350.33;;;26.39;27.06
63447;BME280;49577;49.872;6.190;2022-07-06T12:42:05;100349.89;;;26.26;26.73
63447;BME280;49577;49.872;6.190;2022-07-06T12:44:31;100350.91;;;26.16;26.88
63447;BME280;49577;49.872;6.190;2022-07-06T12:49:30;100352.48;;;26.13;27.14
63447;BME280;49577;49.872;6.190;2022-07-06T12:52:01;100353.55;;;25.95;27.16
63447;BME280;49577;49.872;6.190;2022-07-06T12:54:33;100355.27;;;25.77;27.45